LXGB/GIB METAR and TAF weather

Enter ICAO airport designator
Station Type Date Time Source
LXGB METAR 2022/09/26 09:20 UTC NOAA

LXGB 260920Z 23010G20KT 9999 FEW036 22/13 Q1014 NOSIG RMK BLU BLU


Station Type Date Time Source
LXGB Decoded METAR 2022/09/26 09:20 UTC NOAA

Gibraltar, Gibraltar (LXGB) 36-09N 005-21W 0M
Sep 26, 2022 - 05:20 AM EDT / 2022.09.26 0920 UTC
Wind: from the SW (230 degrees) at 12 MPH (10 KT) gusting to 23 MPH (20 KT):0
Visibility: greater than 7 mile(s):0
Sky conditions: mostly clear
Temperature: 71 F (22 C)
Dew Point: 55 F (13 C)
Relative Humidity: 56%
Pressure (altimeter): 29.94 in. Hg (1014 hPa)
ob: LXGB 260920Z 23010G20KT 9999 FEW036 22/13 Q1014 NOSIG RMK BLU BLU
cycle: 9

Station Type Date Time Source
LXGB TAF 2022/08/19 18:21 UTC NOAA

TAF TAF LXGB 192017Z 1918/2022 CNL

Example: see airport list